Time;durP1;ratioP1;P1;durP2;ratioP2;P2;SDS_P1;SDS_P2;PMS_P1;PMS_P2;Temp;Humidity;BMP_temperature;BMP_pressure;BME280_temperature;BME280_humidity;BME280_pressure;Samples;Min_cycle;Max_cycle;Signal;HPM_P1;HPM_P2
2021/12/14 00:02:09;;;;;;;13.23;12.50;;;4.90;99.90;;;;;;4998471;28;20205;-82
2021/12/14 00:04:37;;;;;;;13.23;12.33;;;4.80;99.90;;;;;;4995202;28;20220;-82
2021/12/14 00:07:09;;;;;;;14.10;13.20;;;4.70;99.90;;;;;;5001503;28;20208;-81
2021/12/14 00:09:40;;;;;;;13.70;12.80;;;4.60;99.90;;;;;;4999000;28;20196;-82
2021/12/14 00:12:25;;;;;;;14.60;13.70;;;4.60;99.90;;;;;;5001160;28;20215;-81
2021/12/14 00:15:04;;;;;;;14.60;13.60;;;4.60;99.90;;;;;;5001345;28;20228;-82
2021/12/14 00:17:37;;;;;;;15.03;13.93;;;4.60;99.90;;;;;;4992004;28;20203;-81
2021/12/14 00:20:12;;;;;;;15.30;14.20;;;4.70;99.90;;;;;;4991336;28;20237;-81
2021/12/14 00:25:25;;;;;;;14.77;13.77;;;4.60;99.90;;;;;;4994549;28;20222;-81
2021/12/14 00:27:52;;;;;;;15.20;14.00;;;4.60;99.90;;;;;;5001692;28;20221;-83
2021/12/14 00:30:20;;;;;;;15.00;13.90;;;4.60;99.90;;;;;;4995725;28;20639;-81
2021/12/14 00:32:47;;;;;;;15.60;14.40;;;4.50;99.90;;;;;;5007284;28;20204;-81
2021/12/14 00:35:15;;;;;;;15.90;14.60;;;4.50;99.90;;;;;;4994957;28;20226;-81
2021/12/14 00:37:46;;;;;;;15.60;14.40;;;4.40;99.90;;;;;;4996743;28;20189;-81
2021/12/14 00:40:17;;;;;;;15.33;14.10;;;4.40;99.90;;;;;;4995571;28;20213;-81
2021/12/14 00:42:46;;;;;;;16.93;15.63;;;4.40;99.90;;;;;;4999040;28;20693;-82
2021/12/14 00:45:14;;;;;;;15.90;14.60;;;4.50;99.90;;;;;;4996771;28;20642;-82
2021/12/14 00:47:41;;;;;;;15.67;14.37;;;4.50;99.90;;;;;;4997195;28;20220;-81
2021/12/14 00:50:10;;;;;;;16.50;15.30;;;4.50;99.90;;;;;;4999630;28;20730;-81
2021/12/14 00:52:38;;;;;;;17.00;15.50;;;4.50;99.90;;;;;;4999359;28;20214;-81
2021/12/14 00:55:08;;;;;;;17.13;15.83;;;4.50;99.90;;;;;;4998885;28;20228;-81
2021/12/14 00:57:36;;;;;;;17.40;15.93;;;4.50;99.90;;;;;;4998179;28;20650;-82
2021/12/14 01:00:08;;;;;;;17.37;15.90;;;4.50;99.90;;;;;;5000814;28;20197;-82
2021/12/14 01:02:36;;;;;;;17.40;15.87;;;4.50;99.90;;;;;;4990277;28;20201;-81
2021/12/14 01:05:08;;;;;;;16.47;15.20;;;4.60;99.90;;;;;;5000783;28;20216;-81
2021/12/14 01:07:36;;;;;;;16.73;15.50;;;4.60;99.90;;;;;;4991039;28;20221;-81
2021/12/14 01:10:13;;;;;;;16.43;15.23;;;4.60;99.90;;;;;;5001280;28;20208;-80
2021/12/14 01:12:46;;;;;;;16.07;14.97;;;4.50;99.90;;;;;;4992377;28;20224;-81
2021/12/14 01:15:27;;;;;;;15.93;14.73;;;4.50;99.90;;;;;;5004209;28;20237;-81
2021/12/14 01:20:42;;;;;;;15.90;14.60;;;4.50;99.90;;;;;;4983288;28;20204;-81
2021/12/14 01:23:17;;;;;;;16.83;15.63;;;4.50;99.90;;;;;;4994850;28;20230;-81
2021/12/14 01:25:49;;;;;;;17.23;16.03;;;4.50;99.90;;;;;;4995502;28;20197;-81
2021/12/14 01:28:19;;;;;;;17.70;16.20;;;4.50;99.90;;;;;;4998709;28;20940;-81
2021/12/14 01:30:59;;;;;;;18.40;16.73;;;4.50;99.90;;;;;;4999354;28;20235;-81
2021/12/14 01:33:27;;;;;;;17.90;16.30;;;4.50;99.90;;;;;;5002455;28;20565;-81
2021/12/14 01:35:56;;;;;;;18.60;16.70;;;4.50;99.90;;;;;;5000140;28;20192;-81
2021/12/14 01:38:34;;;;;;;16.97;15.50;;;4.50;99.90;;;;;;4995535;28;20201;-81
2021/12/14 01:41:07;;;;;;;16.23;14.93;;;4.50;99.90;;;;;;5000802;28;20239;-81
2021/12/14 01:43:42;;;;;;;15.90;14.60;;;4.50;99.90;;;;;;4996807;28;20223;-80
2021/12/14 01:46:20;;;;;;;15.60;14.40;;;4.50;99.90;;;;;;4999552;28;20208;-81
2021/12/14 01:48:49;;;;;;;16.03;14.63;;;4.40;99.90;;;;;;5001779;28;20214;-81
2021/12/14 01:51:38;;;;;;;15.70;14.53;;;4.50;99.90;;;;;;4997340;28;20279;-81
2021/12/14 01:54:15;;;;;;;16.63;15.53;;;4.40;99.90;;;;;;4998326;28;20217;-81
2021/12/14 01:56:45;;;;;;;15.47;14.47;;;4.40;99.90;;;;;;4998735;28;20291;-81
2021/12/14 01:59:16;;;;;;;15.50;14.40;;;4.40;99.90;;;;;;5000264;28;20200;-80
2021/12/14 02:01:53;;;;;;;15.37;14.37;;;4.40;99.90;;;;;;5004060;28;20255;-81
2021/12/14 02:04:23;;;;;;;15.43;14.43;;;4.40;99.90;;;;;;4994781;28;20227;-81
2021/12/14 02:06:55;;;;;;;15.67;14.47;;;4.40;99.90;;;;;;4998252;28;20205;-80
2021/12/14 02:09:26;;;;;;;15.03;14.03;;;4.40;99.90;;;;;;4995619;28;20689;-81
2021/12/14 02:11:58;;;;;;;15.27;14.07;;;4.30;99.90;;;;;;5000030;28;20204;-81
2021/12/14 02:14:26;;;;;;;15.63;14.43;;;4.30;99.90;;;;;;4994558;28;20600;-80
2021/12/14 02:16:55;;;;;;;16.53;15.23;;;4.30;99.90;;;;;;4992863;28;20193;-81
2021/12/14 02:19:23;;;;;;;15.97;14.70;;;4.30;99.90;;;;;;5002610;28;20858;-81
2021/12/14 02:21:54;;;;;;;17.03;15.57;;;4.30;99.90;;;;;;4997660;28;20248;-81
2021/12/14 02:24:23;;;;;;;19.97;17.97;;;4.30;99.90;;;;;;4996341;28;20720;-80
2021/12/14 02:26:55;;;;;;;21.10;18.23;;;4.30;99.90;;;;;;4992871;28;20755;-81
2021/12/14 02:29:27;;;;;;;19.33;17.53;;;4.30;99.90;;;;;;4997974;28;20384;-81
2021/12/14 02:32:01;;;;;;;18.30;16.70;;;4.20;99.90;;;;;;5000539;28;20203;-81
2021/12/14 02:34:29;;;;;;;17.67;16.17;;;4.20;99.90;;;;;;4987184;28;20212;-81
2021/12/14 02:36:58;;;;;;;16.90;15.60;;;4.20;99.90;;;;;;4993632;28;20200;-82
2021/12/14 02:39:47;;;;;;;16.30;15.00;;;4.10;99.90;;;;;;5000415;28;20184;-81
2021/12/14 02:42:22;;;;;;;16.10;14.60;;;4.10;99.90;;;;;;4997637;28;20208;-81
2021/12/14 02:44:51;;;;;;;18.00;16.43;;;4.10;99.90;;;;;;4994186;28;20220;-81
2021/12/14 02:47:20;;;;;;;17.20;15.80;;;4.00;99.90;;;;;;5003808;28;20201;-82
2021/12/14 02:49:48;;;;;;;16.53;15.17;;;4.00;99.90;;;;;;4996168;28;20198;-83
2021/12/14 02:52:26;;;;;;;16.63;15.27;;;4.00;99.90;;;;;;5003543;28;20209;-82
2021/12/14 02:54:58;;;;;;;16.10;14.80;;;4.00;99.90;;;;;;5017279;28;20224;-83
2021/12/14 02:57:34;;;;;;;16.13;14.83;;;4.00;99.90;;;;;;5014238;28;20197;-83
2021/12/14 03:00:04;;;;;;;16.27;14.90;;;4.00;99.90;;;;;;4996543;28;20300;-82
2021/12/14 03:02:34;;;;;;;16.37;14.97;;;4.00;99.90;;;;;;4996125;28;20567;-81
2021/12/14 03:05:05;;;;;;;16.83;15.37;;;4.00;99.90;;;;;;4999351;28;20248;-81
2021/12/14 03:07:40;;;;;;;15.87;14.63;;;4.00;99.90;;;;;;4995782;28;20261;-81
2021/12/14 03:10:21;;;;;;;15.93;14.53;;;3.90;99.90;;;;;;4997294;28;20203;-81
2021/12/14 03:12:50;;;;;;;16.47;15.17;;;3.90;99.90;;;;;;4994452;28;20192;-81
2021/12/14 03:15:20;;;;;;;15.00;13.80;;;4.00;99.90;;;;;;5002705;28;20228;-83
2021/12/14 03:17:49;;;;;;;15.40;14.20;;;4.00;99.90;;;;;;4999009;28;20705;-81
2021/12/14 03:20:20;;;;;;;14.67;13.57;;;3.90;99.90;;;;;;4994297;28;20205;-81
2021/12/14 03:22:56;;;;;;;15.37;14.27;;;3.90;99.90;;;;;;4997002;28;20198;-81
2021/12/14 03:25:23;;;;;;;14.90;13.90;;;3.90;99.90;;;;;;5005558;28;20756;-81
2021/12/14 03:27:52;;;;;;;15.60;14.30;;;3.90;99.90;;;;;;4997149;28;20225;-81
2021/12/14 03:30:24;;;;;;;14.77;13.77;;;3.90;99.90;;;;;;5000098;28;20211;-81
2021/12/14 03:32:52;;;;;;;16.00;14.63;;;3.90;99.90;;;;;;5003567;28;20624;-82
2021/12/14 03:35:19;;;;;;;15.67;14.47;;;3.90;99.90;;;;;;4998090;28;20221;-81
2021/12/14 03:37:49;;;;;;;17.43;15.87;;;3.90;99.90;;;;;;4999066;28;20571;-81
2021/12/14 03:40:17;;;;;;;17.17;15.70;;;3.90;99.90;;;;;;4995453;28;20318;-80
2021/12/14 03:42:44;;;;;;;16.80;15.20;;;3.90;99.90;;;;;;4990420;28;20602;-81
2021/12/14 03:45:21;;;;;;;16.80;15.43;;;3.90;99.90;;;;;;4995412;28;20221;-81
2021/12/14 03:47:52;;;;;;;16.43;15.03;;;3.90;99.90;;;;;;4989520;28;20217;-80
2021/12/14 03:50:24;;;;;;;16.57;15.37;;;3.90;99.90;;;;;;4990621;28;20205;-81
2021/12/14 03:52:52;;;;;;;16.63;15.30;;;3.90;99.90;;;;;;4983502;28;20197;-82
2021/12/14 03:55:24;;;;;;;15.90;14.67;;;3.90;99.90;;;;;;4989840;28;20222;-81
2021/12/14 03:57:52;;;;;;;16.50;15.10;;;3.90;99.90;;;;;;4990453;28;20674;-82
2021/12/14 04:00:26;;;;;;;15.90;14.60;;;3.80;99.90;;;;;;4999779;28;20216;-81
2021/12/14 04:02:56;;;;;;;14.73;13.63;;;3.80;99.90;;;;;;4996552;28;20722;-81
2021/12/14 04:05:37;;;;;;;14.90;13.87;;;3.80;99.90;;;;;;4993731;28;20292;-82
2021/12/14 04:08:08;;;;;;;13.80;12.90;;;3.80;99.90;;;;;;4995702;28;20213;-81
2021/12/14 04:10:37;;;;;;;14.60;13.50;;;3.70;99.90;;;;;;4993613;28;20285;-82
2021/12/14 04:13:05;;;;;;;15.57;14.37;;;3.70;99.90;;;;;;4998570;28;20208;-82
2021/12/14 04:15:33;;;;;;;15.07;14.07;;;3.70;99.90;;;;;;5000952;28;20268;-79
2021/12/14 04:18:01;;;;;;;15.87;14.70;;;3.70;99.90;;;;;;4999340;28;20220;-82
2021/12/14 04:20:32;;;;;;;15.23;14.13;;;3.70;99.90;;;;;;4990959;28;20202;-82
2021/12/14 04:23:00;;;;;;;15.57;14.47;;;3.70;99.90;;;;;;4998446;28;20206;-81
2021/12/14 04:25:32;;;;;;;14.70;13.70;;;3.70;99.90;;;;;;4992104;28;20197;-82
2021/12/14 04:28:04;;;;;;;16.83;15.63;;;3.70;99.90;;;;;;4992494;28;20201;-80
2021/12/14 04:30:31;;;;;;;16.67;15.27;;;3.70;99.90;;;;;;4996409;28;20524;-81
2021/12/14 04:33:04;;;;;;;15.40;14.10;;;3.60;99.90;;;;;;5000250;28;20223;-80
2021/12/14 04:35:33;;;;;;;16.90;15.40;;;3.60;99.90;;;;;;4985624;28;20240;-81
2021/12/14 04:38:07;;;;;;;16.53;15.13;;;3.60;99.90;;;;;;4994645;28;20211;-81
2021/12/14 04:51:55;;;;;;;19.80;17.80;;;3.60;99.90;;;;;;4999437;28;20194;-81
2021/12/14 04:52:01;;;;;;;15.40;14.30;;;3.50;99.90;;;;;;4910881;29;20298;-81
2021/12/14 04:54:36;;;;;;;15.23;14.10;;;3.40;99.90;;;;;;4974985;28;20220;-82
2021/12/14 04:57:06;;;;;;;16.60;15.30;;;3.40;99.90;;;;;;5000613;28;20637;-82
2021/12/14 04:59:35;;;;;;;16.27;14.87;;;3.40;99.90;;;;;;5004900;28;20247;-81
2021/12/14 05:02:11;;;;;;;15.23;14.10;;;3.40;99.90;;;;;;5003275;28;20732;-82
2021/12/14 05:05:18;;;;;;;15.67;14.57;;;3.40;99.90;;;;;;4999199;28;20233;-82
2021/12/14 05:10:42;;;;;;;14.97;13.87;;;3.30;99.90;;;;;;5018451;28;20213;-82
2021/12/14 05:13:10;;;;;;;14.13;13.13;;;3.30;99.90;;;;;;5003278;28;20468;-82
2021/12/14 05:15:38;;;;;;;14.53;13.53;;;3.20;99.90;;;;;;5001124;28;20453;-82
2021/12/14 05:18:10;;;;;;;15.07;13.97;;;3.20;99.90;;;;;;4999576;28;20654;-82
2021/12/14 05:20:42;;;;;;;16.30;15.00;;;3.30;99.90;;;;;;5007139;28;20196;-81
2021/12/14 05:23:10;;;;;;;15.23;13.97;;;3.30;99.90;;;;;;5002351;28;20445;-81
2021/12/14 05:25:38;;;;;;;15.10;14.00;;;3.30;99.90;;;;;;5002539;28;20462;-81
2021/12/14 05:28:14;;;;;;;15.00;13.80;;;3.40;99.90;;;;;;5002943;28;20439;-80
2021/12/14 05:30:46;;;;;;;15.90;14.70;;;3.30;99.90;;;;;;4998482;28;20189;-80
2021/12/14 05:33:27;;;;;;;17.03;15.80;;;3.30;99.90;;;;;;5002493;28;20648;-81
2021/12/14 05:35:59;;;;;;;17.27;16.03;;;3.30;99.90;;;;;;5005159;28;20479;-81
2021/12/14 05:38:41;;;;;;;15.67;14.33;;;3.40;99.90;;;;;;4998834;28;20261;-81
2021/12/14 05:44:14;;;;;;;17.97;16.33;;;3.50;99.90;;;;;;5001279;28;20540;-81
2021/12/14 05:46:50;;;;;;;17.73;16.13;;;3.60;99.90;;;;;;5010221;28;20470;-81
2021/12/14 05:49:30;;;;;;;16.00;14.70;;;3.60;99.90;;;;;;4993500;28;20208;-82
2021/12/14 05:52:00;;;;;;;16.30;14.90;;;3.60;99.90;;;;;;5000737;28;20457;-81
2021/12/14 05:54:29;;;;;;;15.73;14.43;;;3.60;99.90;;;;;;5011415;28;20273;-81
2021/12/14 05:57:00;;;;;;;14.97;13.87;;;3.60;99.90;;;;;;5003381;28;20248;-81
2021/12/14 05:59:31;;;;;;;14.10;13.20;;;3.60;99.90;;;;;;5001496;28;20200;-81
2021/12/14 06:02:01;;;;;;;14.47;13.47;;;3.50;99.90;;;;;;4988029;28;20212;-82
2021/12/14 06:04:33;;;;;;;14.60;13.60;;;3.50;99.90;;;;;;4996047;28;20240;-80
2021/12/14 06:07:00;;;;;;;15.33;14.23;;;3.40;99.90;;;;;;4994326;28;20202;-83
2021/12/14 06:09:30;;;;;;;14.70;13.60;;;3.30;99.90;;;;;;5002347;28;20639;-82
2021/12/14 06:12:12;;;;;;;15.17;14.00;;;3.30;99.90;;;;;;4986537;28;20484;-83
2021/12/14 06:14:50;;;;;;;15.27;14.10;;;3.10;99.90;;;;;;4987914;28;20236;-81
2021/12/14 06:17:22;;;;;;;15.67;14.47;;;3.00;99.90;;;;;;4997044;28;21038;-81
2021/12/14 06:19:51;;;;;;;15.70;14.70;;;3.00;99.90;;;;;;4996928;28;20536;-82
2021/12/14 06:22:22;;;;;;;15.47;14.30;;;2.90;99.90;;;;;;5007358;28;20199;-82
2021/12/14 06:24:52;;;;;;;15.07;13.97;;;3.00;99.90;;;;;;4995599;28;20855;-81
2021/12/14 06:27:25;;;;;;;16.57;15.37;;;3.00;99.90;;;;;;4996746;28;20291;-82
2021/12/14 06:29:56;;;;;;;15.90;14.80;;;3.00;99.90;;;;;;4993696;28;20476;-81
2021/12/14 06:32:26;;;;;;;15.53;14.53;;;3.00;99.90;;;;;;5003853;28;20225;-82
2021/12/14 06:34:57;;;;;;;16.30;15.20;;;2.90;99.90;;;;;;4998728;28;20503;-81
2021/12/14 06:38:06;;;;;;;16.23;15.13;;;2.90;99.90;;;;;;4993008;28;20948;-82
2021/12/14 06:40:35;;;;;;;17.40;16.13;;;2.90;99.90;;;;;;4999017;28;20527;-82
2021/12/14 06:43:08;;;;;;;16.90;15.70;;;2.90;99.90;;;;;;4990988;28;20893;-81
2021/12/14 06:45:38;;;;;;;16.77;15.63;;;2.90;99.90;;;;;;4990880;28;21001;-81
2021/12/14 06:48:12;;;;;;;17.60;16.10;;;2.90;99.90;;;;;;4993315;28;20453;-82
2021/12/14 06:50:43;;;;;;;17.03;15.73;;;2.80;99.90;;;;;;4999234;28;20480;-82
2021/12/14 06:53:22;;;;;;;17.57;16.37;;;2.80;99.90;;;;;;5001463;28;20448;-81
2021/12/14 06:56:14;;;;;;;17.13;15.93;;;2.80;99.90;;;;;;5001373;28;20964;-82
2021/12/14 06:59:05;;;;;;;18.07;16.70;;;2.80;99.90;;;;;;5000300;28;20432;-81
2021/12/14 07:01:52;;;;;;;18.10;16.70;;;2.80;99.90;;;;;;4980720;28;20447;-82
2021/12/14 07:04:23;;;;;;;17.63;16.33;;;2.80;99.90;;;;;;5002744;28;20903;-81
2021/12/14 07:06:54;;;;;;;18.50;17.20;;;2.90;99.90;;;;;;4996443;28;20445;-82
2021/12/14 07:09:25;;;;;;;17.70;16.40;;;2.90;99.90;;;;;;4999076;28;20884;-81
2021/12/14 07:11:58;;;;;;;16.93;15.73;;;2.90;99.90;;;;;;5005955;28;20463;-81
2021/12/14 07:14:39;;;;;;;17.03;15.73;;;2.90;99.90;;;;;;4990515;28;20490;-81
2021/12/14 07:17:15;;;;;;;17.70;16.40;;;2.90;99.90;;;;;;4987457;28;20492;-82
2021/12/14 07:19:46;;;;;;;17.47;16.07;;;3.00;99.90;;;;;;4994763;28;20193;-81
2021/12/14 07:22:35;;;;;;;17.37;16.17;;;2.90;99.90;;;;;;4996656;28;20201;-81
2021/12/14 07:25:05;;;;;;;17.67;16.30;;;2.90;99.90;;;;;;4994678;28;20230;-81
2021/12/14 07:27:32;;;;;;;16.97;15.47;;;2.90;99.90;;;;;;4994330;28;20436;-81
2021/12/14 07:30:14;;;;;;;18.23;16.83;;;2.90;99.90;;;;;;5002046;28;20221;-81
2021/12/14 07:33:02;;;;;;;16.70;15.50;;;2.90;99.90;;;;;;4991357;28;20245;-81
2021/12/14 07:35:37;;;;;;;17.97;16.67;;;2.90;99.90;;;;;;4992609;28;20456;-81
2021/12/14 07:38:22;;;;;;;17.90;16.60;;;2.90;99.90;;;;;;4993341;28;20673;-82
2021/12/14 07:40:52;;;;;;;17.07;15.77;;;3.00;99.90;;;;;;4997849;28;20433;-81
2021/12/14 07:43:22;;;;;;;16.27;15.17;;;3.00;99.90;;;;;;5000332;28;20474;-82
2021/12/14 07:45:52;;;;;;;16.53;15.33;;;3.10;99.90;;;;;;4997940;28;20482;-81
2021/12/14 07:48:21;;;;;;;16.90;15.70;;;3.20;99.90;;;;;;4991283;28;20532;-81
2021/12/14 07:50:52;;;;;;;16.90;15.70;;;3.20;99.90;;;;;;4995362;28;20469;-81
2021/12/14 07:53:35;;;;;;;16.70;15.43;;;3.20;99.90;;;;;;4997878;28;20220;-82
2021/12/14 07:56:02;;;;;;;17.10;15.80;;;3.20;99.90;;;;;;4993170;28;20840;-82
2021/12/14 07:58:36;;;;;;;16.97;15.70;;;3.20;99.90;;;;;;4991859;28;20448;-81
2021/12/14 08:01:05;;;;;;;16.67;15.47;;;3.20;99.90;;;;;;4997700;28;20189;-81
2021/12/14 08:03:34;;;;;;;17.10;15.70;;;3.30;99.90;;;;;;4994660;28;20503;-81
2021/12/14 08:06:04;;;;;;;16.00;14.90;;;3.50;99.90;;;;;;4997461;28;20206;-82
2021/12/14 08:08:41;;;;;;;16.40;15.20;;;3.50;99.90;;;;;;4985469;28;20998;-82
2021/12/14 08:13:53;;;;;;;15.13;14.03;;;3.60;99.90;;;;;;4997750;28;20459;-81
2021/12/14 08:16:20;;;;;;;16.07;14.97;;;3.60;99.90;;;;;;4998285;28;20890;-81
2021/12/14 08:18:48;;;;;;;15.70;14.60;;;3.60;99.90;;;;;;4992183;28;20257;-81
2021/12/14 08:21:19;;;;;;;15.67;14.57;;;3.60;99.90;;;;;;4995675;28;20267;-82
2021/12/14 08:23:52;;;;;;;16.17;15.13;;;3.60;99.90;;;;;;4994828;28;20250;-81
2021/12/14 08:26:23;;;;;;;16.80;15.60;;;3.70;99.90;;;;;;4990103;28;20205;-80
2021/12/14 08:28:52;;;;;;;17.17;15.90;;;3.70;99.90;;;;;;4995247;28;20637;-81
2021/12/14 08:31:20;;;;;;;16.73;15.53;;;3.80;99.90;;;;;;4995715;28;20198;-82
2021/12/14 08:33:55;;;;;;;16.40;15.27;;;3.80;99.90;;;;;;4993157;28;20275;-82
2021/12/14 08:36:22;;;;;;;16.47;15.27;;;3.80;99.90;;;;;;5005177;28;20647;-82
2021/12/14 08:39:01;;;;;;;17.93;16.67;;;3.80;99.90;;;;;;4997796;28;20201;-82
2021/12/14 08:41:29;;;;;;;16.00;14.80;;;3.90;99.90;;;;;;4998055;28;20193;-82
2021/12/14 08:43:57;;;;;;;16.23;14.90;;;3.90;99.90;;;;;;5001851;28;20725;-82
2021/12/14 08:46:26;;;;;;;18.07;16.63;;;4.00;99.90;;;;;;4995212;28;20204;-82
2021/12/14 08:48:57;;;;;;;16.67;15.37;;;4.00;99.90;;;;;;4995983;28;20280;-82
2021/12/14 08:51:30;;;;;;;18.43;17.10;;;4.00;99.90;;;;;;5003654;28;20200;-82
2021/12/14 08:54:01;;;;;;;18.57;17.07;;;4.00;99.90;;;;;;5005084;28;20232;-82
2021/12/14 08:56:33;;;;;;;19.83;18.43;;;4.10;99.90;;;;;;4993378;28;20198;-82
2021/12/14 08:59:00;;;;;;;15.67;14.37;;;4.10;99.90;;;;;;5001403;28;20205;-82
2021/12/14 09:01:30;;;;;;;14.97;13.77;;;4.10;99.90;;;;;;5004931;28;20263;-81
2021/12/14 09:04:01;;;;;;;13.83;12.83;;;4.40;99.90;;;;;;4997295;28;20616;-83
2021/12/14 09:06:33;;;;;;;16.10;15.00;;;4.70;99.90;;;;;;4988288;28;20219;-82
2021/12/14 09:09:03;;;;;;;15.13;14.03;;;5.00;99.90;;;;;;4995016;28;20233;-82
2021/12/14 09:11:33;;;;;;;15.30;14.20;;;5.20;99.90;;;;;;4995349;28;20939;-82
2021/12/14 09:14:00;;;;;;;15.87;14.77;;;5.40;99.90;;;;;;5001449;28;20232;-83
2021/12/14 09:16:30;;;;;;;14.63;13.67;;;5.40;99.90;;;;;;4996886;28;20221;-82
2021/12/14 09:19:03;;;;;;;15.43;14.33;;;5.40;99.90;;;;;;4996381;28;20198;-83
2021/12/14 09:21:34;;;;;;;15.13;14.07;;;5.30;99.90;;;;;;4995663;28;20750;-82
2021/12/14 09:24:05;;;;;;;15.60;14.60;;;5.40;99.90;;;;;;4998898;28;20220;-83
2021/12/14 09:26:36;;;;;;;14.70;13.80;;;5.40;99.90;;;;;;4987960;28;20251;-82
2021/12/14 09:29:05;;;;;;;14.87;13.77;;;5.40;99.90;;;;;;4991762;28;20753;-82
2021/12/14 09:31:36;;;;;;;14.63;13.60;;;5.50;99.90;;;;;;5003710;28;20584;-82
2021/12/14 09:34:06;;;;;;;14.30;13.30;;;5.50;99.90;;;;;;4996381;28;20774;-83
2021/12/14 09:36:33;;;;;;;14.43;13.40;;;5.70;99.90;;;;;;5008836;28;20189;-82
2021/12/14 09:39:07;;;;;;;15.07;14.07;;;5.80;99.90;;;;;;4999300;28;20227;-82
2021/12/14 09:41:34;;;;;;;14.37;13.47;;;5.80;99.90;;;;;;4997185;28;20197;-81
2021/12/14 09:44:04;;;;;;;14.00;13.10;;;6.00;99.90;;;;;;5003044;28;20221;-82
2021/12/14 09:46:32;;;;;;;15.67;14.50;;;6.10;99.90;;;;;;4996552;28;20239;-82
2021/12/14 09:49:02;;;;;;;14.63;13.70;;;6.10;99.90;;;;;;5002217;28;20614;-82
2021/12/14 09:51:36;;;;;;;15.77;14.67;;;6.10;99.90;;;;;;4987882;28;20602;-81
2021/12/14 09:54:07;;;;;;;15.00;14.00;;;6.10;99.90;;;;;;5006408;28;20225;-82
2021/12/14 09:56:39;;;;;;;15.37;14.27;;;6.20;99.90;;;;;;5003076;28;20660;-82
2021/12/14 09:59:08;;;;;;;16.33;15.03;;;6.20;99.90;;;;;;4996644;28;20216;-81
2021/12/14 10:01:38;;;;;;;15.67;14.57;;;6.20;99.90;;;;;;4991289;28;20674;-83
2021/12/14 10:04:09;;;;;;;15.57;14.37;;;6.20;99.90;;;;;;4999489;28;20225;-81
2021/12/14 10:06:37;;;;;;;15.17;14.10;;;6.20;99.90;;;;;;4997503;28;20209;-81
2021/12/14 10:09:10;;;;;;;15.90;14.90;;;6.20;99.90;;;;;;5000771;28;20673;-81
2021/12/14 10:11:47;;;;;;;15.63;14.53;;;6.30;99.90;;;;;;4991570;28;20219;-82
2021/12/14 10:14:16;;;;;;;15.23;14.23;;;6.40;99.90;;;;;;5003076;28;20233;-82
2021/12/14 10:16:43;;;;;;;7.80;7.10;;;6.50;99.90;;;;;;4999318;28;20653;-81
2021/12/14 10:19:13;;;;;;;6.63;6.03;;;6.50;99.90;;;;;;4998291;28;20632;-82
2021/12/14 10:21:45;;;;;;;5.97;5.30;;;6.60;99.90;;;;;;4996837;28;20617;-81
2021/12/14 10:24:12;;;;;;;5.93;5.33;;;6.60;99.90;;;;;;4993528;28;20315;-82
2021/12/14 10:26:43;;;;;;;5.93;5.33;;;6.60;99.90;;;;;;4998193;28;20207;-82
2021/12/14 10:29:10;;;;;;;6.30;5.70;;;6.50;99.90;;;;;;5001020;28;20214;-81
2021/12/14 10:31:40;;;;;;;5.90;5.00;;;6.50;99.90;;;;;;4998095;28;20225;-82
2021/12/14 10:34:11;;;;;;;5.37;4.80;;;6.60;99.90;;;;;;4994902;28;20233;-82
2021/12/14 10:36:43;;;;;;;7.03;5.83;;;6.60;99.90;;;;;;4997518;28;20230;-81
2021/12/14 10:39:24;;;;;;;8.20;5.50;;;6.70;99.90;;;;;;4999824;28;20205;-82
2021/12/14 10:44:44;;;;;;;14.50;13.60;;;6.80;99.90;;;;;;4993824;28;20711;-81
2021/12/14 10:47:13;;;;;;;14.57;13.67;;;6.80;99.90;;;;;;5000688;28;20676;-81
2021/12/14 10:49:41;;;;;;;15.67;14.63;;;6.80;99.90;;;;;;4997115;28;20734;-81
2021/12/14 10:52:14;;;;;;;14.83;13.93;;;6.90;99.90;;;;;;4998770;28;20214;-82
2021/12/14 10:54:44;;;;;;;14.83;13.77;;;6.90;99.90;;;;;;4995509;28;20223;-82
2021/12/14 10:57:13;;;;;;;6.07;5.53;;;7.00;99.90;;;;;;4995418;28;20259;-81
2021/12/14 10:59:44;;;;;;;5.67;5.17;;;7.00;99.90;;;;;;4997415;28;20202;-82
2021/12/14 11:02:12;;;;;;;5.67;5.17;;;7.10;99.90;;;;;;4996858;28;20203;-82
2021/12/14 11:04:51;;;;;;;5.77;5.17;;;7.20;99.90;;;;;;5002616;28;20641;-82
2021/12/14 11:07:22;;;;;;;6.03;5.13;;;7.30;99.90;;;;;;5001064;28;20212;-82
2021/12/14 11:09:53;;;;;;;5.80;5.10;;;7.30;99.90;;;;;;4996847;28;20196;-82
2021/12/14 11:12:24;;;;;;;13.03;12.17;;;7.40;99.90;;;;;;4984857;28;20201;-82
2021/12/14 11:14:54;;;;;;;14.37;13.37;;;7.40;99.90;;;;;;4997411;28;20230;-82
2021/12/14 11:20:10;;;;;;;12.23;11.43;;;7.50;99.90;;;;;;4964062;28;20201;-81
2021/12/14 11:22:46;;;;;;;11.77;10.77;;;7.60;99.90;;;;;;4996047;28;20280;-81
2021/12/14 11:25:19;;;;;;;13.97;13.00;;;7.60;99.90;;;;;;4995811;28;20283;-82
2021/12/14 11:27:49;;;;;;;10.73;9.93;;;7.70;99.90;;;;;;5002569;28;20604;-82
2021/12/14 11:30:20;;;;;;;14.53;13.63;;;7.90;99.90;;;;;;4992307;28;20212;-82
2021/12/14 11:33:01;;;;;;;13.87;12.87;;;8.00;99.90;;;;;;5003211;28;20530;-82
2021/12/14 11:35:29;;;;;;;12.00;11.20;;;8.10;99.90;;;;;;5001530;28;20224;-83
2021/12/14 11:37:57;;;;;;;11.20;10.40;;;8.20;99.90;;;;;;5004054;28;20500;-81
2021/12/14 11:40:27;;;;;;;10.27;9.57;;;8.20;99.90;;;;;;5001717;28;20199;-83
2021/12/14 11:43:08;;;;;;;10.27;9.57;;;8.30;99.90;;;;;;5002941;28;20446;-82
2021/12/14 11:45:37;;;;;;;9.93;9.23;;;8.40;99.90;;;;;;5007905;28;20201;-82
2021/12/14 11:48:05;;;;;;;10.20;9.50;;;8.40;99.90;;;;;;5003765;28;20205;-82
2021/12/14 11:50:37;;;;;;;13.90;13.10;;;8.30;99.90;;;;;;5005649;28;20203;-83
2021/12/14 11:53:14;;;;;;;13.70;12.80;;;8.20;99.90;;;;;;4998775;28;20208;-83
2021/12/14 11:55:45;;;;;;;13.77;12.87;;;8.30;99.90;;;;;;4998645;28;20251;-83
2021/12/14 11:58:26;;;;;;;13.37;12.57;;;8.40;99.90;;;;;;4998595;28;20204;-84
2021/12/14 12:01:06;;;;;;;14.17;13.37;;;8.50;99.90;;;;;;4996869;28;20200;-82
2021/12/14 12:03:47;;;;;;;13.73;12.93;;;8.50;99.90;;;;;;4982967;28;20220;-83
2021/12/14 12:11:56;;;;;;;14.57;13.67;;;8.60;99.90;;;;;;4997799;28;20311;-82
2021/12/14 12:14:27;;;;;;;14.80;13.90;;;8.60;99.90;;;;;;4994141;28;20238;-82
2021/12/14 12:16:56;;;;;;;14.70;13.80;;;8.60;99.90;;;;;;4994727;28;20198;-82
2021/12/14 12:19:26;;;;;;;14.63;13.73;;;8.60;99.90;;;;;;4998808;28;20407;-82
2021/12/14 12:21:54;;;;;;;14.83;13.83;;;8.60;99.90;;;;;;4996378;28;20267;-82
2021/12/14 12:24:35;;;;;;;14.00;13.10;;;8.60;99.90;;;;;;4994340;28;20224;-82
2021/12/14 12:27:31;;;;;;;14.67;13.67;;;8.60;99.90;;;;;;4997148;28;20204;-83
2021/12/14 12:30:25;;;;;;;14.40;13.40;;;8.70;99.90;;;;;;4997483;28;20207;-82
2021/12/14 12:32:52;;;;;;;14.17;13.27;;;8.70;99.90;;;;;;4993011;28;20625;-82
2021/12/14 12:35:29;;;;;;;13.47;12.67;;;8.80;99.90;;;;;;4996059;28;20212;-83
2021/12/14 12:37:59;;;;;;;13.93;13.03;;;8.80;99.90;;;;;;4995944;28;20200;-82
2021/12/14 12:40:38;;;;;;;14.93;13.83;;;8.80;99.90;;;;;;4997908;28;20616;-83
2021/12/14 12:43:23;;;;;;;14.00;13.10;;;8.90;99.90;;;;;;4984485;28;20233;-83
2021/12/14 12:46:08;;;;;;;14.17;13.27;;;8.90;99.90;;;;;;5000096;28;20204;-83
2021/12/14 12:48:52;;;;;;;14.10;13.30;;;9.00;99.90;;;;;;4988021;28;20254;-82
2021/12/14 12:51:44;;;;;;;14.17;13.27;;;9.00;99.90;;;;;;4992273;28;20221;-82
2021/12/14 12:54:14;;;;;;;14.13;13.23;;;9.00;99.90;;;;;;4991665;28;20230;-82
2021/12/14 12:56:42;;;;;;;14.37;13.47;;;9.00;99.90;;;;;;4996795;28;20210;-83
2021/12/14 12:59:12;;;;;;;13.70;12.80;;;9.00;99.90;;;;;;4999946;28;20260;-82
2021/12/14 13:01:40;;;;;;;11.90;11.00;;;9.10;99.90;;;;;;4994742;28;20234;-82
2021/12/14 13:04:08;;;;;;;10.43;9.73;;;9.10;99.90;;;;;;4995483;28;20647;-82
2021/12/14 13:06:34;;;;;;;9.40;8.63;;;9.00;99.90;;;;;;4995438;28;20207;-83
2021/12/14 13:09:01;;;;;;;11.87;11.07;;;9.00;99.90;;;;;;4994802;28;20217;-82
2021/12/14 13:11:32;;;;;;;13.23;12.43;;;9.10;99.90;;;;;;4991666;28;20213;-82
2021/12/14 13:14:02;;;;;;;14.50;13.60;;;9.10;99.90;;;;;;4996803;28;20225;-83
2021/12/14 13:16:32;;;;;;;15.07;14.07;;;9.10;99.90;;;;;;4992133;28;20236;-82
2021/12/14 13:19:03;;;;;;;13.63;12.73;;;9.10;99.90;;;;;;4997553;28;20206;-83
2021/12/14 13:21:49;;;;;;;12.63;11.83;;;9.20;99.90;;;;;;4992271;28;20208;-82
2021/12/14 13:24:23;;;;;;;14.00;13.10;;;9.20;99.90;;;;;;5002125;28;20290;-82
2021/12/14 13:26:58;;;;;;;14.47;13.37;;;9.20;99.90;;;;;;4998261;28;20299;-82
2021/12/14 13:29:39;;;;;;;15.80;14.80;;;9.20;99.90;;;;;;4994161;28;20204;-82
2021/12/14 13:32:15;;;;;;;14.17;13.27;;;9.10;99.90;;;;;;4992882;28;20255;-82
2021/12/14 13:34:47;;;;;;;16.23;15.20;;;9.10;99.90;;;;;;4998440;28;20221;-82
2021/12/14 13:37:19;;;;;;;7.00;6.37;;;9.10;99.90;;;;;;4999742;28;20206;-82
2021/12/14 13:39:47;;;;;;;15.67;14.67;;;9.10;99.90;;;;;;5004056;28;20189;-83